Time;durP1;ratioP1;P1;durP2;ratioP2;P2;SDS_P1;SDS_P2;PMS_P1;PMS_P2;Temp;Humidity;BMP_temperature;BMP_pressure;BME280_temperature;BME280_humidity;BME280_pressure;Samples;Min_cycle;Max_cycle;Signal;HPM_P1;HPM_P2
2023/01/09 00:01:24;;;;;;;8.00;1.30;;;6.80;99.90;;;;;;5069233;28;20126;-70
2023/01/09 00:03:50;;;;;;;7.72;1.42;;;6.80;99.90;;;;;;5071511;28;20048;-71
2023/01/09 00:06:16;;;;;;;6.43;1.70;;;6.80;99.90;;;;;;5041460;28;20048;-71
2023/01/09 00:08:42;;;;;;;8.05;1.80;;;6.80;99.90;;;;;;5057956;28;20044;-71
2023/01/09 00:11:07;;;;;;;6.15;1.80;;;6.80;99.90;;;;;;5040437;28;20056;-70
2023/01/09 00:13:34;;;;;;;4.03;1.70;;;6.80;99.90;;;;;;5057471;28;20064;-70
2023/01/09 00:16:00;;;;;;;7.43;1.73;;;6.70;99.90;;;;;;5074901;28;20063;-71
2023/01/09 00:18:26;;;;;;;4.45;1.20;;;6.70;99.90;;;;;;5060216;28;20032;-71
2023/01/09 00:20:52;;;;;;;8.27;1.67;;;6.90;99.90;;;;;;5038722;28;20124;-71
2023/01/09 00:23:17;;;;;;;2.40;1.20;;;6.70;99.90;;;;;;5037384;28;20042;-71
2023/01/09 00:25:43;;;;;;;3.15;1.10;;;6.70;99.90;;;;;;5073508;28;20062;-71
2023/01/09 00:28:09;;;;;;;4.00;0.80;;;7.10;99.90;;;;;;5057214;28;20051;-71
2023/01/09 00:30:35;;;;;;;3.05;0.60;;;6.70;99.90;;;;;;5059226;28;20051;-72
2023/01/09 00:33:01;;;;;;;3.22;0.85;;;6.70;99.90;;;;;;5076705;28;20047;-71
2023/01/09 00:35:28;;;;;;;3.92;0.80;;;6.70;99.90;;;;;;5076829;28;20624;-71
2023/01/09 00:37:54;;;;;;;0.75;0.52;;;6.60;99.90;;;;;;5043096;28;20651;-70
2023/01/09 00:40:20;;;;;;;3.75;0.50;;;6.60;99.90;;;;;;5058323;28;20166;-71
2023/01/09 00:42:50;;;;;;;3.25;0.80;;;6.60;99.90;;;;;;5074238;28;20097;-71
2023/01/09 00:45:22;;;;;;;2.90;0.45;;;6.60;99.90;;;;;;5060597;28;20688;-71
2023/01/09 00:47:51;;;;;;;2.80;0.70;;;6.60;99.90;;;;;;5059062;28;20076;-71
2023/01/09 00:50:26;;;;;;;3.05;0.68;;;6.60;99.90;;;;;;5058194;28;20066;-71
2023/01/09 00:52:55;;;;;;;5.15;1.10;;;6.60;99.90;;;;;;5068687;28;20044;-70
2023/01/09 00:55:21;;;;;;;1.63;0.60;;;6.60;99.90;;;;;;5061901;28;20089;-71
2023/01/09 00:57:48;;;;;;;3.10;0.65;;;6.60;99.90;;;;;;5076479;28;20510;-72
2023/01/09 01:00:14;;;;;;;3.50;0.73;;;6.60;99.90;;;;;;5075357;28;20039;-71
2023/01/09 01:02:40;;;;;;;2.17;0.57;;;6.60;99.90;;;;;;5041023;28;20048;-72
2023/01/09 01:07:51;;;;;;;2.67;0.63;;;6.50;99.90;;;;;;5074333;28;20513;-71
2023/01/09 01:10:23;;;;;;;2.55;0.60;;;6.50;99.90;;;;;;5060512;28;20142;-72
2023/01/09 01:12:50;;;;;;;3.08;0.65;;;6.50;99.90;;;;;;5059589;28;20058;-71
2023/01/09 01:15:17;;;;;;;2.70;0.60;;;6.50;99.90;;;;;;5059776;28;20408;-72
2023/01/09 01:17:44;;;;;;;3.72;0.60;;;6.50;99.90;;;;;;5042998;28;20040;-72
2023/01/09 01:20:13;;;;;;;2.58;0.60;;;6.40;99.90;;;;;;5056902;28;20123;-72
2023/01/09 01:22:41;;;;;;;3.47;0.70;;;6.40;99.90;;;;;;5058855;28;20036;-72
2023/01/09 01:25:07;;;;;;;1.77;0.60;;;6.80;99.90;;;;;;5059515;28;20055;-72
2023/01/09 01:27:33;;;;;;;2.08;0.80;;;6.40;99.90;;;;;;5074333;28;20512;-72
2023/01/09 01:29:59;;;;;;;2.72;0.80;;;6.40;99.90;;;;;;5077271;28;20048;-73
2023/01/09 01:32:25;;;;;;;4.20;1.00;;;6.40;99.90;;;;;;5041033;28;20123;-72
2023/01/09 01:34:51;;;;;;;5.80;1.10;;;6.80;99.90;;;;;;5056294;28;20051;-71
2023/01/09 01:37:17;;;;;;;3.08;1.33;;;6.40;99.90;;;;;;5038515;28;20051;-71
2023/01/09 01:39:42;;;;;;;3.50;1.20;;;6.40;99.90;;;;;;5054763;28;20047;-71
2023/01/09 01:42:11;;;;;;;3.85;1.20;;;6.40;99.90;;;;;;5043701;28;20105;-70
2023/01/09 01:44:57;;;;;;;6.72;1.33;;;6.40;99.90;;;;;;5057925;28;20056;-71
2023/01/09 01:47:48;;;;;;;7.30;1.23;;;6.40;99.90;;;;;;5055122;28;20509;-71
2023/01/09 01:50:35;;;;;;;3.33;1.20;;;6.50;99.90;;;;;;5030858;28;20102;-72
2023/01/09 01:53:22;;;;;;;4.75;1.40;;;6.50;99.90;;;;;;5059068;28;20066;-71
2023/01/09 01:56:09;;;;;;;5.80;1.60;;;6.70;99.90;;;;;;5057665;28;20036;-71
2023/01/09 01:58:42;;;;;;;6.55;1.63;;;6.50;99.90;;;;;;5043121;28;20058;-71
2023/01/09 02:01:08;;;;;;;7.47;2.00;;;6.50;99.90;;;;;;5073117;28;20036;-71
2023/01/09 02:03:37;;;;;;;5.00;1.60;;;6.50;99.90;;;;;;5053396;28;20072;-71
2023/01/09 02:06:03;;;;;;;9.70;2.60;;;7.00;99.90;;;;;;5058352;28;20040;-71
2023/01/09 02:08:30;;;;;;;7.75;2.35;;;6.50;99.90;;;;;;5057209;28;20060;-71
2023/01/09 02:10:56;;;;;;;10.32;1.98;;;6.50;99.90;;;;;;5058077;28;20055;-70
2023/01/09 02:13:23;;;;;;;9.82;1.90;;;7.00;99.90;;;;;;5056708;28;20060;-71
2023/01/09 02:15:56;;;;;;;7.25;1.85;;;6.50;99.90;;;;;;5074687;28;20043;-71
2023/01/09 02:18:40;;;;;;;10.52;1.90;;;6.50;99.90;;;;;;5039774;28;20104;-71
2023/01/09 02:21:21;;;;;;;6.32;1.83;;;6.50;99.90;;;;;;5039054;28;20059;-71
2023/01/09 02:24:21;;;;;;;8.90;2.00;;;6.80;99.90;;;;;;5037732;28;20493;-71
2023/01/09 02:27:13;;;;;;;6.93;2.05;;;6.50;99.90;;;;;;5041665;28;20089;-71
2023/01/09 02:30:01;;;;;;;8.70;1.90;;;6.50;99.90;;;;;;5072913;28;20041;-71
2023/01/09 02:32:45;;;;;;;5.50;1.75;;;6.40;99.90;;;;;;5032439;28;20467;-71
2023/01/09 02:35:13;;;;;;;8.43;1.58;;;6.40;99.90;;;;;;5057836;28;20040;-71
2023/01/09 02:38:22;;;;;;;8.40;1.83;;;6.40;99.90;;;;;;5061811;28;20051;-72
2023/01/09 02:41:07;;;;;;;9.88;1.88;;;6.40;99.90;;;;;;4963172;28;20058;-71
2023/01/09 02:43:33;;;;;;;5.38;1.67;;;6.40;99.90;;;;;;4995935;28;20046;-72
2023/01/09 02:45:58;;;;;;;7.82;1.88;;;6.30;99.90;;;;;;5043561;28;20055;-71
2023/01/09 02:48:24;;;;;;;6.45;1.83;;;6.30;99.90;;;;;;5057233;28;20048;-71
2023/01/09 02:51:34;;;;;;;10.48;1.83;;;6.30;99.90;;;;;;5042571;28;20086;-71
2023/01/09 02:54:06;;;;;;;7.75;1.73;;;6.30;99.90;;;;;;5045092;28;20052;-72
2023/01/09 02:57:07;;;;;;;8.90;2.35;;;6.30;99.90;;;;;;5075040;28;20048;-72
2023/01/09 02:59:49;;;;;;;6.45;1.73;;;6.20;99.90;;;;;;4991803;28;20548;-72
2023/01/09 03:02:56;;;;;;;10.10;2.15;;;6.20;99.90;;;;;;5045310;28;20152;-71
2023/01/09 03:05:32;;;;;;;6.93;2.13;;;6.20;99.90;;;;;;5053188;28;20444;-72
2023/01/09 03:08:17;;;;;;;7.13;2.15;;;6.20;99.90;;;;;;5039516;28;20043;-71
2023/01/09 03:10:52;;;;;;;8.88;1.98;;;6.20;99.90;;;;;;5056011;28;20056;-72
2023/01/09 03:13:22;;;;;;;10.63;1.80;;;6.20;99.90;;;;;;5038557;28;20131;-72
2023/01/09 03:15:52;;;;;;;7.88;1.75;;;6.10;99.90;;;;;;5038429;28;20048;-71
2023/01/09 03:18:21;;;;;;;11.60;2.00;;;6.10;99.90;;;;;;5056562;28;20426;-70
2023/01/09 03:20:48;;;;;;;4.78;2.00;;;6.10;99.90;;;;;;5038764;28;20084;-72
2023/01/09 03:23:14;;;;;;;7.18;2.13;;;6.10;99.90;;;;;;5039092;28;20044;-72
2023/01/09 03:25:40;;;;;;;7.72;2.28;;;6.10;99.90;;;;;;5075723;28;20063;-72
2023/01/09 03:28:12;;;;;;;5.50;1.85;;;6.00;99.90;;;;;;5039350;28;20048;-72
2023/01/09 03:30:37;;;;;;;8.30;1.98;;;6.00;99.90;;;;;;5074716;28;20052;-72
2023/01/09 03:33:03;;;;;;;8.60;2.05;;;6.00;99.90;;;;;;5047963;28;20074;-72
2023/01/09 03:35:29;;;;;;;8.07;2.30;;;6.00;99.90;;;;;;5056152;28;20146;-72
2023/01/09 03:37:55;;;;;;;10.35;2.60;;;6.00;99.90;;;;;;5075954;28;20636;-71
2023/01/09 03:40:21;;;;;;;8.48;2.95;;;6.60;99.90;;;;;;5038227;28;20040;-72
2023/01/09 03:42:47;;;;;;;9.88;3.17;;;5.90;99.90;;;;;;5071659;28;20044;-71
2023/01/09 03:45:12;;;;;;;10.40;2.15;;;5.90;99.90;;;;;;5075894;28;20040;-72
2023/01/09 03:47:38;;;;;;;10.50;2.38;;;5.90;99.90;;;;;;5053331;28;20036;-71
2023/01/09 03:50:04;;;;;;;11.63;2.40;;;5.90;99.90;;;;;;5041269;28;20174;-72
2023/01/09 03:52:31;;;;;;;8.80;2.10;;;5.90;99.90;;;;;;5039965;28;20135;-71
2023/01/09 03:54:56;;;;;;;9.25;2.42;;;5.80;99.90;;;;;;5042378;28;20501;-71
2023/01/09 03:57:23;;;;;;;11.18;2.70;;;5.80;99.90;;;;;;5041251;28;20051;-71
2023/01/09 03:59:49;;;;;;;10.60;2.33;;;5.80;99.90;;;;;;5053562;28;20047;-72
2023/01/09 04:02:15;;;;;;;10.70;2.53;;;5.80;99.90;;;;;;5063310;28;20048;-72
2023/01/09 04:04:41;;;;;;;10.73;2.17;;;5.70;99.90;;;;;;5035127;28;20119;-72
2023/01/09 04:07:07;;;;;;;9.05;2.85;;;5.80;99.90;;;;;;5036896;28;20044;-71
2023/01/09 04:09:32;;;;;;;10.95;2.70;;;5.70;99.90;;;;;;5072863;28;20828;-72
2023/01/09 04:11:58;;;;;;;8.07;3.50;;;5.70;99.90;;;;;;5057543;28;20048;-71
2023/01/09 04:14:24;;;;;;;9.45;2.92;;;5.70;99.90;;;;;;5077903;28;20048;-71
2023/01/09 04:16:50;;;;;;;6.93;2.47;;;5.70;99.90;;;;;;5038755;28;20078;-71
2023/01/09 04:19:16;;;;;;;9.20;2.63;;;5.60;99.90;;;;;;5056670;28;20102;-71
2023/01/09 04:21:41;;;;;;;8.90;2.65;;;5.60;99.90;;;;;;5034543;28;20048;-71
2023/01/09 04:24:07;;;;;;;12.93;3.30;;;5.60;99.90;;;;;;5055424;28;20106;-71
2023/01/09 04:26:33;;;;;;;10.95;2.97;;;5.60;99.90;;;;;;5057897;28;20063;-71
2023/01/09 04:28:59;;;;;;;10.55;3.70;;;5.50;99.90;;;;;;5056655;28;20048;-71
2023/01/09 04:31:25;;;;;;;7.50;2.80;;;5.50;99.90;;;;;;5046291;28;20140;-71
2023/01/09 04:33:51;;;;;;;10.35;3.03;;;5.50;99.90;;;;;;5062864;28;20039;-72
2023/01/09 04:36:17;;;;;;;11.30;4.00;;;5.50;99.90;;;;;;5079557;28;20459;-71
2023/01/09 04:38:42;;;;;;;7.90;3.20;;;5.70;99.90;;;;;;5063320;28;20044;-72
2023/01/09 04:41:08;;;;;;;7.35;3.13;;;5.40;99.90;;;;;;5075663;28;20044;-71
2023/01/09 04:43:34;;;;;;;11.35;4.20;;;5.40;99.90;;;;;;5076507;28;20394;-71
2023/01/09 04:46:01;;;;;;;9.50;3.45;;;5.40;99.90;;;;;;5073905;28;20052;-72
2023/01/09 04:48:27;;;;;;;12.68;3.78;;;5.40;99.90;;;;;;5074678;28;20658;-72
2023/01/09 04:50:52;;;;;;;10.35;3.75;;;5.40;99.90;;;;;;5076213;28;20051;-72
2023/01/09 04:53:18;;;;;;;15.02;3.85;;;5.30;99.90;;;;;;5057961;28;20044;-72
2023/01/09 04:55:45;;;;;;;8.95;3.58;;;5.30;99.90;;;;;;5061865;28;20060;-72
2023/01/09 04:58:10;;;;;;;14.38;4.60;;;5.30;99.90;;;;;;5056611;28;20051;-71
2023/01/09 05:00:36;;;;;;;12.32;4.10;;;5.40;99.90;;;;;;5057742;28;20401;-72
2023/01/09 05:03:02;;;;;;;10.32;4.50;;;5.30;99.90;;;;;;5059265;28;20131;-72
2023/01/09 05:05:28;;;;;;;11.85;4.97;;;5.30;99.90;;;;;;5041616;28;20051;-72
2023/01/09 05:07:54;;;;;;;11.77;4.88;;;5.30;99.90;;;;;;5072658;28;20075;-72
2023/01/09 05:10:20;;;;;;;8.32;4.50;;;5.30;99.90;;;;;;5057756;28;20063;-72
2023/01/09 05:12:45;;;;;;;11.70;4.85;;;5.20;99.90;;;;;;5074317;28;20036;-73
2023/01/09 05:15:11;;;;;;;20.70;5.07;;;5.20;99.90;;;;;;5040026;28;20052;-71
2023/01/09 05:17:37;;;;;;;19.15;5.20;;;5.20;99.90;;;;;;5058363;28;20032;-72
2023/01/09 05:20:03;;;;;;;13.77;4.80;;;5.20;99.90;;;;;;5057186;28;20039;-72
2023/01/09 05:22:29;;;;;;;13.18;5.47;;;5.20;99.90;;;;;;5055796;28;20127;-72
2023/01/09 05:24:55;;;;;;;15.23;5.43;;;5.20;99.90;;;;;;5071143;28;20051;-72
2023/01/09 05:27:21;;;;;;;12.65;6.25;;;5.80;99.90;;;;;;5073501;28;20040;-71
2023/01/09 05:29:46;;;;;;;16.25;5.97;;;5.20;99.90;;;;;;5057318;28;20029;-71
2023/01/09 05:32:12;;;;;;;11.48;6.00;;;5.20;99.90;;;;;;5058221;28;20043;-72
2023/01/09 05:34:38;;;;;;;17.20;6.28;;;5.20;99.90;;;;;;5077880;28;20075;-71
2023/01/09 05:37:04;;;;;;;15.52;7.00;;;5.20;99.90;;;;;;5053848;28;20086;-71
2023/01/09 05:39:30;;;;;;;12.68;6.40;;;5.20;99.90;;;;;;5058044;28;20786;-71
2023/01/09 05:41:56;;;;;;;14.50;7.13;;;5.20;99.90;;;;;;5056079;28;20051;-72
2023/01/09 05:44:22;;;;;;;15.70;7.57;;;5.20;99.90;;;;;;5058935;28;20039;-71
2023/01/09 05:46:47;;;;;;;16.65;8.60;;;5.80;99.90;;;;;;5077263;28;20060;-72
2023/01/09 05:49:13;;;;;;;18.70;8.88;;;5.20;99.90;;;;;;5045059;28;20059;-71
2023/01/09 05:51:39;;;;;;;19.15;9.82;;;5.20;99.90;;;;;;5039323;28;20040;-71
2023/01/09 05:54:06;;;;;;;15.63;9.73;;;5.30;99.90;;;;;;5040680;28;20326;-72
2023/01/09 05:56:32;;;;;;;25.77;11.20;;;5.20;99.90;;;;;;5076667;28;20196;-72
2023/01/09 05:58:57;;;;;;;18.60;11.18;;;5.20;99.90;;;;;;5055583;28;20136;-71
2023/01/09 06:01:24;;;;;;;22.52;11.48;;;5.30;99.90;;;;;;5029846;28;20051;-72
2023/01/09 06:03:50;;;;;;;22.67;12.82;;;5.30;99.90;;;;;;5065384;28;20044;-72
2023/01/09 06:06:15;;;;;;;19.05;11.07;;;5.30;99.90;;;;;;5058410;28;20847;-72
2023/01/09 06:08:41;;;;;;;22.13;12.52;;;5.30;99.90;;;;;;5044542;28;20127;-71
2023/01/09 06:11:07;;;;;;;21.92;12.82;;;5.30;99.90;;;;;;5041589;28;20698;-72
2023/01/09 06:13:33;;;;;;;27.65;13.52;;;5.30;99.90;;;;;;5050606;28;20052;-72
2023/01/09 06:15:59;;;;;;;28.25;13.93;;;5.30;99.90;;;;;;5049408;28;20407;-72
2023/01/09 06:18:25;;;;;;;25.58;13.43;;;5.30;99.90;;;;;;5060876;28;20052;-71
2023/01/09 06:20:51;;;;;;;22.92;13.75;;;5.40;99.90;;;;;;5063468;28;20082;-72
2023/01/09 06:23:16;;;;;;;23.70;14.20;;;5.40;99.90;;;;;;5062922;28;20168;-72
2023/01/09 06:25:42;;;;;;;24.20;14.30;;;5.40;99.90;;;;;;5036621;28;20052;-72
2023/01/09 06:28:08;;;;;;;25.08;15.02;;;5.40;99.90;;;;;;5046187;28;20040;-73
2023/01/09 06:30:34;;;;;;;23.90;14.57;;;5.50;99.90;;;;;;5066828;28;20049;-72
2023/01/09 06:33:00;;;;;;;22.08;14.90;;;5.40;99.90;;;;;;5059046;28;20364;-73
2023/01/09 06:35:26;;;;;;;21.83;13.80;;;5.50;99.90;;;;;;5068503;28;20465;-73
2023/01/09 06:37:54;;;;;;;24.15;15.00;;;5.50;99.90;;;;;;5034518;28;20059;-73
2023/01/09 06:40:23;;;;;;;21.52;14.52;;;5.50;99.90;;;;;;5065110;28;20063;-72
2023/01/09 06:42:51;;;;;;;23.48;13.93;;;5.60;99.90;;;;;;5068817;28;20039;-72
2023/01/09 06:45:17;;;;;;;24.42;13.88;;;5.50;99.90;;;;;;5066222;28;20033;-73
2023/01/09 06:47:43;;;;;;;24.17;13.38;;;5.50;99.90;;;;;;5041934;28;20048;-73
2023/01/09 06:50:10;;;;;;;24.67;13.93;;;5.50;99.90;;;;;;5063919;28;20044;-72
2023/01/09 06:52:37;;;;;;;22.50;13.93;;;5.50;99.90;;;;;;5048147;28;20698;-72
2023/01/09 06:55:03;;;;;;;23.15;14.05;;;5.80;99.90;;;;;;5064718;28;20048;-72
2023/01/09 06:57:28;;;;;;;27.92;14.13;;;5.50;99.90;;;;;;5057049;28;20492;-73
2023/01/09 06:59:57;;;;;;;25.92;13.45;;;5.50;99.90;;;;;;5057708;28;20044;-73
2023/01/09 07:02:27;;;;;;;22.27;13.52;;;5.50;99.90;;;;;;5045958;28;20097;-73
2023/01/09 07:04:52;;;;;;;19.00;13.52;;;5.50;99.90;;;;;;5065907;28;20039;-73
2023/01/09 07:07:19;;;;;;;21.23;12.85;;;5.50;99.90;;;;;;5057064;28;20529;-71
2023/01/09 07:09:45;;;;;;;26.88;13.32;;;5.50;99.90;;;;;;5036588;28;20904;-71
2023/01/09 07:12:11;;;;;;;20.98;13.25;;;5.90;99.90;;;;;;5063560;28;20058;-72
2023/01/09 07:14:37;;;;;;;28.77;13.00;;;5.50;99.90;;;;;;5044404;28;20067;-72
2023/01/09 07:17:03;;;;;;;21.08;12.10;;;5.80;99.90;;;;;;5064835;28;20048;-71
2023/01/09 07:19:28;;;;;;;21.33;12.32;;;5.50;99.90;;;;;;5072902;28;20047;-71
2023/01/09 07:21:54;;;;;;;21.70;12.10;;;5.50;99.90;;;;;;5045469;28;20158;-72
2023/01/09 07:24:20;;;;;;;19.85;11.90;;;5.50;99.90;;;;;;5068116;28;20049;-72
2023/01/09 07:26:45;;;;;;;22.92;11.77;;;5.70;99.90;;;;;;5056034;28;20048;-72
2023/01/09 07:29:12;;;;;;;17.17;10.68;;;5.50;99.90;;;;;;5067635;28;20455;-72
2023/01/09 07:31:37;;;;;;;21.13;11.27;;;5.60;99.90;;;;;;5044035;28;20127;-72
2023/01/09 07:34:03;;;;;;;19.27;11.45;;;5.50;99.90;;;;;;5054581;28;20480;-72
2023/01/09 07:36:29;;;;;;;20.20;10.82;;;5.50;99.90;;;;;;5031743;28;20048;-72
2023/01/09 07:38:55;;;;;;;21.65;10.77;;;5.50;99.90;;;;;;5066872;28;20143;-72
2023/01/09 07:41:20;;;;;;;20.30;11.38;;;5.50;99.90;;;;;;5066381;28;20520;-72
2023/01/09 07:43:46;;;;;;;19.77;11.13;;;5.50;99.90;;;;;;5066833;28;20044;-72
2023/01/09 07:46:12;;;;;;;18.48;10.45;;;5.50;99.90;;;;;;5065848;28;20044;-72
2023/01/09 07:48:38;;;;;;;23.45;11.70;;;5.50;99.90;;;;;;5048078;28;21785;-72
2023/01/09 07:51:05;;;;;;;18.83;10.60;;;5.40;99.90;;;;;;5065870;28;20032;-72
2023/01/09 07:53:30;;;;;;;16.55;10.32;;;5.40;99.90;;;;;;5062339;28;20145;-72
2023/01/09 07:55:56;;;;;;;20.25;11.27;;;5.40;99.90;;;;;;5061830;28;20165;-72
2023/01/09 07:58:22;;;;;;;19.88;10.88;;;5.40;99.90;;;;;;5041485;28;20516;-72
2023/01/09 08:00:49;;;;;;;16.00;10.00;;;5.40;99.90;;;;;;5069396;28;20055;-72
2023/01/09 08:03:15;;;;;;;20.65;10.43;;;5.40;99.90;;;;;;5052345;28;20797;-71
2023/01/09 08:05:41;;;;;;;17.05;10.02;;;5.40;99.90;;;;;;5071812;28;20073;-69
2023/01/09 08:08:07;;;;;;;20.23;9.93;;;5.50;99.90;;;;;;5072987;28;20130;-71
2023/01/09 08:10:32;;;;;;;18.73;8.93;;;5.30;99.90;;;;;;5051717;28;20052;-72
2023/01/09 08:12:58;;;;;;;20.02;9.82;;;5.30;99.90;;;;;;5047825;28;20072;-71
2023/01/09 08:15:24;;;;;;;16.48;9.02;;;5.30;99.90;;;;;;5066232;28;20061;-71
2023/01/09 08:17:50;;;;;;;21.08;9.25;;;5.30;99.90;;;;;;5068157;28;20045;-72
2023/01/09 08:20:17;;;;;;;15.57;8.50;;;5.40;99.90;;;;;;5065106;28;20044;-71
2023/01/09 08:22:48;;;;;;;15.27;8.63;;;5.30;99.90;;;;;;5066152;28;20054;-72
2023/01/09 08:25:15;;;;;;;13.90;7.38;;;5.50;99.90;;;;;;5069594;28;20299;-71
2023/01/09 08:27:41;;;;;;;14.40;8.15;;;5.30;99.90;;;;;;5066648;28;20050;-71
2023/01/09 08:30:08;;;;;;;15.70;7.85;;;5.80;99.90;;;;;;5071668;28;20529;-71
2023/01/09 08:32:36;;;;;;;18.83;7.88;;;5.30;99.90;;;;;;5051225;28;20047;-71
2023/01/09 08:35:02;;;;;;;15.98;8.82;;;5.30;99.90;;;;;;5034651;28;20119;-71
2023/01/09 08:37:28;;;;;;;16.55;6.80;;;5.30;99.90;;;;;;5062965;28;20056;-70
2023/01/09 08:39:55;;;;;;;12.75;7.00;;;5.90;99.90;;;;;;5066166;28;20040;-71
2023/01/09 08:47:51;;;;;;;13.40;6.93;;;5.30;99.90;;;;;;5065838;28;20041;-71
2023/01/09 08:50:17;;;;;;;15.68;6.65;;;5.40;99.90;;;;;;5050780;28;20133;-71
2023/01/09 08:52:43;;;;;;;15.60;6.25;;;5.40;99.90;;;;;;5047793;28;20052;-71
2023/01/09 08:55:09;;;;;;;14.57;7.05;;;5.40;99.90;;;;;;5052285;28;20044;-71
2023/01/09 08:57:34;;;;;;;12.45;6.28;;;5.40;99.90;;;;;;5046970;28;20078;-70
2023/01/09 09:00:00;;;;;;;14.38;6.85;;;5.40;99.90;;;;;;5040844;28;20127;-71
2023/01/09 09:02:26;;;;;;;17.25;6.93;;;5.50;99.90;;;;;;5065482;28;20420;-71
2023/01/09 09:04:52;;;;;;;14.45;6.63;;;5.50;99.90;;;;;;5055343;28;20044;-72
2023/01/09 09:07:25;;;;;;;15.15;6.97;;;5.50;99.90;;;;;;5049904;28;20520;-71
2023/01/09 09:09:54;;;;;;;12.95;5.82;;;5.50;99.90;;;;;;5047246;28;20055;-71
2023/01/09 09:12:21;;;;;;;15.50;6.53;;;5.60;99.90;;;;;;5060717;28;20486;-71
2023/01/09 09:17:32;;;;;;;11.98;6.03;;;5.60;99.90;;;;;;5064362;28;20520;-71
2023/01/09 09:19:58;;;;;;;13.00;5.70;;;5.60;99.90;;;;;;5049079;28;20076;-71
2023/01/09 09:22:25;;;;;;;13.55;5.60;;;5.60;99.90;;;;;;5048379;28;20498;-71
2023/01/09 09:24:50;;;;;;;18.42;5.93;;;5.60;99.90;;;;;;5057498;28;20048;-71
2023/01/09 09:27:16;;;;;;;13.32;5.90;;;5.60;99.90;;;;;;5067385;28;20036;-72
2023/01/09 09:29:42;;;;;;;13.35;5.07;;;5.60;99.90;;;;;;5068831;28;20036;-72
2023/01/09 09:32:08;;;;;;;11.45;5.25;;;5.70;99.90;;;;;;5056367;28;20059;-72
2023/01/09 09:34:34;;;;;;;13.55;5.82;;;5.70;99.90;;;;;;5068081;28;20393;-71
2023/01/09 09:37:00;;;;;;;14.68;6.00;;;5.70;99.90;;;;;;5047605;28;20055;-72
2023/01/09 09:39:25;;;;;;;14.90;5.40;;;5.70;99.90;;;;;;5067024;28;20390;-71
2023/01/09 09:45:36;;;;;;;11.65;5.32;;;5.70;99.90;;;;;;5065462;28;20052;-71
2023/01/09 09:48:19;;;;;;;10.20;4.65;;;5.80;99.90;;;;;;5049745;28;20060;-71
2023/01/09 09:50:53;;;;;;;16.45;5.38;;;5.80;99.90;;;;;;5038341;28;20072;-71
2023/01/09 09:53:58;;;;;;;15.98;5.35;;;5.80;99.90;;;;;;5069239;28;20040;-71
2023/01/09 09:56:27;;;;;;;12.82;4.88;;;5.80;99.90;;;;;;5056798;28;20540;-71
2023/01/09 09:59:00;;;;;;;11.23;4.78;;;6.30;99.90;;;;;;5064368;28;20081;-71
2023/01/09 10:01:36;;;;;;;10.25;4.78;;;6.40;99.90;;;;;;5047340;28;20139;-71
2023/01/09 10:04:06;;;;;;;14.25;5.20;;;5.90;99.90;;;;;;5058310;28;20045;-70
2023/01/09 10:06:41;;;;;;;14.27;4.95;;;5.90;99.90;;;;;;5042750;28;20043;-70
2023/01/09 10:09:35;;;;;;;12.20;4.53;;;5.90;99.90;;;;;;5053818;28;20028;-70
2023/01/09 10:12:28;;;;;;;7.55;4.63;;;5.90;99.90;;;;;;5028295;28;20060;-71
2023/01/09 10:15:01;;;;;;;14.20;4.28;;;6.00;99.90;;;;;;5034783;28;20525;-71
2023/01/09 10:17:44;;;;;;;10.68;4.47;;;6.00;99.90;;;;;;5049465;28;20666;-71
2023/01/09 10:20:30;;;;;;;11.48;4.00;;;6.00;99.90;;;;;;5066187;28;20033;-71
2023/01/09 10:23:02;;;;;;;16.30;4.13;;;6.00;99.90;;;;;;5044473;28;20134;-71
2023/01/09 10:25:44;;;;;;;10.20;4.45;;;6.10;99.90;;;;;;5039669;28;20052;-71
2023/01/09 10:28:19;;;;;;;10.63;4.20;;;6.10;99.90;;;;;;5041222;28;20036;-71
2023/01/09 10:31:00;;;;;;;11.85;4.38;;;6.10;99.90;;;;;;5050646;28;20051;-73
2023/01/09 10:33:50;;;;;;;12.07;4.43;;;6.10;99.90;;;;;;5046752;28;20048;-72
2023/01/09 10:36:38;;;;;;;8.40;3.93;;;6.20;99.90;;;;;;5060197;28;20452;-72
2023/01/09 10:39:14;;;;;;;15.88;5.38;;;6.20;99.90;;;;;;5049158;28;20409;-72
2023/01/09 10:42:03;;;;;;;11.25;4.03;;;6.20;99.90;;;;;;5049033;28;20090;-71
2023/01/09 10:44:37;;;;;;;10.73;3.80;;;6.30;99.90;;;;;;5032496;28;20083;-71
2023/01/09 10:47:18;;;;;;;11.27;4.15;;;6.30;99.90;;;;;;5066811;28;20040;-71
2023/01/09 10:49:46;;;;;;;12.40;4.22;;;6.30;99.90;;;;;;5033659;28;20044;-72
2023/01/09 10:52:17;;;;;;;11.65;3.58;;;6.60;99.90;;;;;;5055081;28;20587;-71
2023/01/09 10:54:48;;;;;;;11.27;3.90;;;6.30;99.90;;;;;;5050894;28;20585;-70
2023/01/09 10:57:37;;;;;;;11.43;3.78;;;6.30;99.90;;;;;;5051319;28;20052;-71
2023/01/09 11:00:05;;;;;;;9.35;3.80;;;6.30;99.90;;;;;;5048706;28;20051;-71
2023/01/09 11:02:34;;;;;;;11.13;4.45;;;6.30;99.90;;;;;;5043685;28;20043;-71
2023/01/09 11:04:59;;;;;;;9.73;4.38;;;6.40;99.90;;;;;;5038235;28;20053;-71
2023/01/09 11:07:36;;;;;;;9.73;3.67;;;6.40;99.90;;;;;;5080794;28;20671;-71
2023/01/09 11:10:13;;;;;;;13.50;3.60;;;6.70;99.90;;;;;;5073915;28;20086;-72
2023/01/09 11:12:39;;;;;;;11.75;4.03;;;6.40;99.90;;;;;;5037584;28;20052;-71
2023/01/09 11:15:18;;;;;;;14.80;3.72;;;6.40;99.90;;;;;;5055094;28;20763;-72
2023/01/09 11:17:45;;;;;;;12.63;4.38;;;6.40;99.90;;;;;;5052187;28;20076;-71
2023/01/09 11:20:22;;;;;;;10.63;4.20;;;6.50;99.90;;;;;;5039837;28;20051;-71
2023/01/09 11:22:50;;;;;;;13.70;3.83;;;6.50;99.90;;;;;;5047123;28;20139;-71
2023/01/09 11:25:19;;;;;;;10.80;3.95;;;6.50;99.90;;;;;;5034708;28;20071;-71
2023/01/09 11:28:05;;;;;;;12.07;3.97;;;6.50;99.90;;;;;;5036802;28;20036;-72
2023/01/09 11:30:51;;;;;;;16.10;4.63;;;6.50;99.90;;;;;;5052649;28;20045;-71
2023/01/09 11:33:35;;;;;;;11.43;4.03;;;6.50;99.90;;;;;;5080501;28;20469;-71
2023/01/09 11:36:14;;;;;;;9.73;4.32;;;6.40;99.90;;;;;;5053579;28;20488;-71
2023/01/09 11:38:48;;;;;;;9.23;4.03;;;6.50;99.90;;;;;;5055510;28;20106;-71
2023/01/09 11:41:22;;;;;;;12.68;4.30;;;6.50;99.90;;;;;;5045361;28;20040;-71
2023/01/09 11:43:55;;;;;;;14.98;5.13;;;6.50;99.90;;;;;;5051441;28;20051;-71
2023/01/09 11:46:30;;;;;;;11.27;4.30;;;6.50;99.90;;;;;;5072747;28;20039;-71
2023/01/09 11:48:58;;;;;;;8.65;4.00;;;6.50;99.90;;;;;;5061225;28;20127;-71
2023/01/09 11:51:27;;;;;;;8.05;4.05;;;6.50;99.90;;;;;;5071164;28;20044;-71
2023/01/09 11:53:56;;;;;;;8.82;4.28;;;6.50;99.90;;;;;;5056828;28;20044;-71
2023/01/09 11:56:22;;;;;;;11.85;3.97;;;6.50;99.90;;;;;;5035703;28;20147;-71
2023/01/09 11:58:48;;;;;;;11.30;4.60;;;6.50;99.90;;;;;;5037072;28;20044;-72
2023/01/09 12:01:43;;;;;;;10.48;4.88;;;6.50;99.90;;;;;;5043312;28;20047;-71
2023/01/09 12:04:40;;;;;;;12.20;4.80;;;6.50;99.90;;;;;;5062126;28;20094;-72
2023/01/09 12:07:15;;;;;;;14.10;4.82;;;6.60;99.90;;;;;;5073917;28;20074;-71
2023/01/09 12:10:04;;;;;;;12.50;5.13;;;6.60;99.90;;;;;;5057781;28;20049;-71
2023/01/09 12:12:51;;;;;;;10.45;5.47;;;6.50;99.90;;;;;;5036872;28;20068;-71
2023/01/09 12:15:33;;;;;;;13.38;4.90;;;6.50;99.90;;;;;;5056741;28;20535;-71
2023/01/09 12:18:11;;;;;;;11.15;5.60;;;6.60;99.90;;;;;;5051288;28;20033;-71
2023/01/09 12:20:46;;;;;;;12.38;5.07;;;6.50;99.90;;;;;;5061495;28;20071;-71
2023/01/09 12:23:22;;;;;;;12.05;5.13;;;6.60;99.90;;;;;;5070682;28;20055;-72
2023/01/09 12:26:14;;;;;;;11.85;4.72;;;6.60;99.90;;;;;;5072143;28;20383;-72
2023/01/09 12:29:01;;;;;;;13.27;5.82;;;6.60;99.90;;;;;;5050734;28;20518;-71
2023/01/09 12:31:30;;;;;;;9.27;5.22;;;6.60;99.90;;;;;;5065157;28;20060;-71
2023/01/09 12:34:14;;;;;;;13.57;6.30;;;6.70;99.90;;;;;;5056502;28;20463;-71
2023/01/09 12:36:58;;;;;;;12.88;6.00;;;6.60;99.90;;;;;;5068567;28;20636;-72
2023/01/09 12:39:24;;;;;;;12.57;5.70;;;6.60;99.90;;;;;;5059958;28;20055;-72
2023/01/09 12:41:57;;;;;;;12.65;5.90;;;6.60;99.90;;;;;;5052301;28;20139;-72
2023/01/09 12:44:26;;;;;;;12.90;6.45;;;6.60;99.90;;;;;;5068305;28;20040;-72
2023/01/09 12:47:05;;;;;;;15.52;7.15;;;6.60;99.90;;;;;;5042240;28;20048;-72
2023/01/09 12:49:52;;;;;;;17.23;6.75;;;6.60;99.90;;;;;;5044070;28;20086;-72
2023/01/09 12:52:40;;;;;;;15.35;7.70;;;6.60;99.90;;;;;;5068252;28;20127;-73
2023/01/09 12:55:22;;;;;;;12.88;7.65;;;6.60;99.90;;;;;;5069784;28;20040;-71
2023/01/09 12:57:49;;;;;;;;;;;6.70;99.90;;;;;;5053023;28;20043;-71
2023/01/09 13:00:23;;;;;;;14.02;7.82;;;6.70;99.90;;;;;;5060668;28;19927;-71
2023/01/09 13:02:56;;;;;;;19.10;8.93;;;6.70;99.90;;;;;;5036741;28;20409;-71
2023/01/09 13:05:35;;;;;;;14.85;7.95;;;6.70;99.90;;;;;;5059388;28;20126;-71
2023/01/09 13:08:23;;;;;;;17.05;8.52;;;6.70;99.90;;;;;;5046894;28;20052;-71
2023/01/09 13:11:03;;;;;;;13.93;8.82;;;7.00;99.90;;;;;;5056881;28;20055;-71
2023/01/09 13:13:44;;;;;;;15.23;8.45;;;6.70;99.90;;;;;;5050480;28;20531;-71
2023/01/09 13:16:26;;;;;;;13.40;8.15;;;6.70;99.90;;;;;;5054773;28;20052;-72
2023/01/09 13:18:58;;;;;;;12.82;8.13;;;6.80;99.90;;;;;;5051726;28;20544;-72
2023/01/09 13:21:25;;;;;;;13.45;8.45;;;6.80;99.90;;;;;;5037271;28;20056;-72